sensor_id;sensor_type;location;lat;lon;timestamp;P1;durP1;ratioP1;P2;durP2;ratioP2
47555;SDS011;33291;46.222;26.460;2023-07-20T00:00:34;11.70;;;9.60;;
47555;SDS011;33291;46.222;26.460;2023-07-20T00:03:12;15.82;;;10.15;;
47555;SDS011;33291;46.222;26.460;2023-07-20T00:05:44;18.52;;;9.45;;
47555;SDS011;33291;46.222;26.460;2023-07-20T00:08:09;15.05;;;9.10;;
47555;SDS011;33291;46.222;26.460;2023-07-20T00:10:35;12.25;;;8.77;;
47555;SDS011;33291;46.222;26.460;2023-07-20T00:13:00;10.60;;;9.25;;
47555;SDS011;33291;46.222;26.460;2023-07-20T00:15:26;14.35;;;9.45;;
47555;SDS011;33291;46.222;26.460;2023-07-20T00:17:51;10.48;;;9.38;;
47555;SDS011;33291;46.222;26.460;2023-07-20T00:20:17;9.70;;;8.60;;
47555;SDS011;33291;46.222;26.460;2023-07-20T00:22:43;11.25;;;9.57;;
47555;SDS011;33291;46.222;26.460;2023-07-20T00:25:08;10.23;;;8.18;;
47555;SDS011;33291;46.222;26.460;2023-07-20T00:27:36;13.82;;;9.20;;
47555;SDS011;33291;46.222;26.460;2023-07-20T00:30:02;15.25;;;8.63;;
47555;SDS011;33291;46.222;26.460;2023-07-20T00:32:29;15.80;;;9.00;;
47555;SDS011;33291;46.222;26.460;2023-07-20T00:34:54;14.32;;;9.38;;
47555;SDS011;33291;46.222;26.460;2023-07-20T00:37:19;14.18;;;8.05;;
47555;SDS011;33291;46.222;26.460;2023-07-20T00:39:45;13.20;;;8.80;;
47555;SDS011;33291;46.222;26.460;2023-07-20T00:42:10;12.25;;;8.95;;
47555;SDS011;33291;46.222;26.460;2023-07-20T00:44:36;11.05;;;9.15;;
47555;SDS011;33291;46.222;26.460;2023-07-20T00:47:01;12.07;;;8.68;;
47555;SDS011;33291;46.222;26.460;2023-07-20T00:49:27;11.98;;;8.45;;
47555;SDS011;33291;46.222;26.460;2023-07-20T00:51:52;8.75;;;7.85;;
47555;SDS011;33291;46.222;26.460;2023-07-20T00:54:18;14.00;;;7.38;;
47555;SDS011;33291;46.222;26.460;2023-07-20T00:56:43;10.18;;;8.05;;
47555;SDS011;33291;46.222;26.460;2023-07-20T00:59:09;16.05;;;7.88;;
47555;SDS011;33291;46.222;26.460;2023-07-20T01:01:35;10.38;;;7.57;;
47555;SDS011;33291;46.222;26.460;2023-07-20T01:04:01;12.57;;;8.38;;
47555;SDS011;33291;46.222;26.460;2023-07-20T01:06:31;12.13;;;8.13;;
47555;SDS011;33291;46.222;26.460;2023-07-20T01:09:17;18.30;;;9.10;;
47555;SDS011;33291;46.222;26.460;2023-07-20T01:11:57;13.18;;;8.48;;
47555;SDS011;33291;46.222;26.460;2023-07-20T01:14:28;15.20;;;7.85;;
47555;SDS011;33291;46.222;26.460;2023-07-20T01:16:54;8.43;;;7.22;;
47555;SDS011;33291;46.222;26.460;2023-07-20T01:19:20;13.45;;;7.45;;
47555;SDS011;33291;46.222;26.460;2023-07-20T01:27:22;10.57;;;7.85;;
47555;SDS011;33291;46.222;26.460;2023-07-20T01:32:33;9.90;;;7.63;;
47555;SDS011;33291;46.222;26.460;2023-07-20T01:35:00;9.02;;;7.72;;
47555;SDS011;33291;46.222;26.460;2023-07-20T01:37:27;10.40;;;8.35;;
47555;SDS011;33291;46.222;26.460;2023-07-20T01:39:55;10.77;;;7.30;;
47555;SDS011;33291;46.222;26.460;2023-07-20T01:42:22;13.55;;;8.43;;
47555;SDS011;33291;46.222;26.460;2023-07-20T01:44:50;10.55;;;7.30;;
47555;SDS011;33291;46.222;26.460;2023-07-20T01:47:17;8.82;;;7.78;;
47555;SDS011;33291;46.222;26.460;2023-07-20T01:49:43;10.98;;;8.30;;
47555;SDS011;33291;46.222;26.460;2023-07-20T01:52:08;9.98;;;7.47;;
47555;SDS011;33291;46.222;26.460;2023-07-20T01:54:34;12.00;;;8.05;;
47555;SDS011;33291;46.222;26.460;2023-07-20T01:56:59;12.55;;;7.70;;
47555;SDS011;33291;46.222;26.460;2023-07-20T01:59:25;11.18;;;8.18;;
47555;SDS011;33291;46.222;26.460;2023-07-20T02:01:50;11.00;;;7.95;;
47555;SDS011;33291;46.222;26.460;2023-07-20T02:04:15;9.07;;;8.15;;
47555;SDS011;33291;46.222;26.460;2023-07-20T02:06:41;11.20;;;8.38;;
47555;SDS011;33291;46.222;26.460;2023-07-20T02:09:07;8.77;;;7.13;;
47555;SDS011;33291;46.222;26.460;2023-07-20T02:11:33;14.15;;;8.48;;
47555;SDS011;33291;46.222;26.460;2023-07-20T02:13:58;9.07;;;7.30;;
47555;SDS011;33291;46.222;26.460;2023-07-20T02:16:24;9.27;;;7.35;;
47555;SDS011;33291;46.222;26.460;2023-07-20T02:18:49;12.95;;;7.55;;
47555;SDS011;33291;46.222;26.460;2023-07-20T02:21:15;11.68;;;7.75;;
47555;SDS011;33291;46.222;26.460;2023-07-20T02:23:40;9.05;;;7.32;;
47555;SDS011;33291;46.222;26.460;2023-07-20T02:26:05;10.50;;;7.88;;
47555;SDS011;33291;46.222;26.460;2023-07-20T02:28:31;10.52;;;8.00;;
47555;SDS011;33291;46.222;26.460;2023-07-20T02:30:57;14.40;;;7.53;;
47555;SDS011;33291;46.222;26.460;2023-07-20T02:33:22;11.95;;;7.65;;
47555;SDS011;33291;46.222;26.460;2023-07-20T02:35:48;17.55;;;7.55;;
47555;SDS011;33291;46.222;26.460;2023-07-20T02:38:14;9.48;;;6.60;;
47555;SDS011;33291;46.222;26.460;2023-07-20T02:40:39;12.43;;;7.53;;
47555;SDS011;33291;46.222;26.460;2023-07-20T02:43:05;9.38;;;6.88;;
47555;SDS011;33291;46.222;26.460;2023-07-20T02:45:30;14.85;;;7.18;;
47555;SDS011;33291;46.222;26.460;2023-07-20T02:47:56;10.27;;;6.78;;
47555;SDS011;33291;46.222;26.460;2023-07-20T02:50:22;9.27;;;7.47;;
47555;SDS011;33291;46.222;26.460;2023-07-20T02:52:47;10.20;;;7.30;;
47555;SDS011;33291;46.222;26.460;2023-07-20T02:55:13;10.10;;;6.80;;
47555;SDS011;33291;46.222;26.460;2023-07-20T02:57:38;10.43;;;7.15;;
47555;SDS011;33291;46.222;26.460;2023-07-20T03:00:04;10.10;;;7.10;;
47555;SDS011;33291;46.222;26.460;2023-07-20T03:02:32;9.88;;;6.90;;
47555;SDS011;33291;46.222;26.460;2023-07-20T03:04:58;10.82;;;7.35;;
47555;SDS011;33291;46.222;26.460;2023-07-20T03:07:24;14.15;;;8.65;;
47555;SDS011;33291;46.222;26.460;2023-07-20T03:09:53;13.48;;;7.55;;
47555;SDS011;33291;46.222;26.460;2023-07-20T03:12:18;10.30;;;7.78;;
47555;SDS011;33291;46.222;26.460;2023-07-20T03:14:43;13.98;;;7.78;;
47555;SDS011;33291;46.222;26.460;2023-07-20T03:17:09;14.48;;;7.88;;
47555;SDS011;33291;46.222;26.460;2023-07-20T03:19:34;10.98;;;7.63;;
47555;SDS011;33291;46.222;26.460;2023-07-20T03:22:00;9.68;;;8.13;;
47555;SDS011;33291;46.222;26.460;2023-07-20T03:24:25;13.63;;;8.18;;
47555;SDS011;33291;46.222;26.460;2023-07-20T03:26:50;9.00;;;7.47;;
47555;SDS011;33291;46.222;26.460;2023-07-20T03:29:16;9.52;;;6.38;;
47555;SDS011;33291;46.222;26.460;2023-07-20T03:31:41;12.77;;;7.72;;
47555;SDS011;33291;46.222;26.460;2023-07-20T03:34:07;8.93;;;6.47;;
47555;SDS011;33291;46.222;26.460;2023-07-20T03:36:33;12.90;;;7.63;;
47555;SDS011;33291;46.222;26.460;2023-07-20T03:38:59;11.48;;;7.43;;
47555;SDS011;33291;46.222;26.460;2023-07-20T03:41:24;10.98;;;7.68;;
47555;SDS011;33291;46.222;26.460;2023-07-20T03:43:50;9.05;;;6.63;;
47555;SDS011;33291;46.222;26.460;2023-07-20T03:46:15;10.75;;;7.22;;
47555;SDS011;33291;46.222;26.460;2023-07-20T03:48:41;8.00;;;6.15;;
47555;SDS011;33291;46.222;26.460;2023-07-20T03:51:06;8.57;;;6.32;;
47555;SDS011;33291;46.222;26.460;2023-07-20T03:53:32;10.10;;;6.93;;
47555;SDS011;33291;46.222;26.460;2023-07-20T03:55:57;13.38;;;6.55;;
47555;SDS011;33291;46.222;26.460;2023-07-20T03:58:23;10.73;;;7.43;;
47555;SDS011;33291;46.222;26.460;2023-07-20T04:00:49;15.75;;;6.60;;
47555;SDS011;33291;46.222;26.460;2023-07-20T04:03:16;12.65;;;6.75;;
47555;SDS011;33291;46.222;26.460;2023-07-20T04:05:43;11.30;;;6.80;;
47555;SDS011;33291;46.222;26.460;2023-07-20T04:08:09;13.77;;;7.60;;
47555;SDS011;33291;46.222;26.460;2023-07-20T04:10:36;7.88;;;6.25;;
47555;SDS011;33291;46.222;26.460;2023-07-20T04:13:02;9.40;;;6.32;;
47555;SDS011;33291;46.222;26.460;2023-07-20T04:15:28;9.20;;;6.18;;
47555;SDS011;33291;46.222;26.460;2023-07-20T04:17:53;8.77;;;6.38;;
47555;SDS011;33291;46.222;26.460;2023-07-20T04:20:20;7.35;;;6.30;;
47555;SDS011;33291;46.222;26.460;2023-07-20T04:22:46;9.18;;;6.30;;
47555;SDS011;33291;46.222;26.460;2023-07-20T04:25:11;12.05;;;6.40;;
47555;SDS011;33291;46.222;26.460;2023-07-20T04:27:37;13.27;;;6.80;;
47555;SDS011;33291;46.222;26.460;2023-07-20T04:30:02;10.68;;;5.70;;
47555;SDS011;33291;46.222;26.460;2023-07-20T04:32:28;8.07;;;5.72;;
47555;SDS011;33291;46.222;26.460;2023-07-20T04:34:54;11.80;;;6.30;;
47555;SDS011;33291;46.222;26.460;2023-07-20T04:37:19;11.52;;;7.18;;
47555;SDS011;33291;46.222;26.460;2023-07-20T04:39:45;10.60;;;5.55;;
47555;SDS011;33291;46.222;26.460;2023-07-20T04:42:11;8.18;;;5.85;;
47555;SDS011;33291;46.222;26.460;2023-07-20T04:44:36;11.20;;;6.72;;
47555;SDS011;33291;46.222;26.460;2023-07-20T04:47:02;10.07;;;5.80;;
47555;SDS011;33291;46.222;26.460;2023-07-20T04:49:28;13.35;;;5.35;;
47555;SDS011;33291;46.222;26.460;2023-07-20T04:51:53;10.05;;;5.03;;
47555;SDS011;33291;46.222;26.460;2023-07-20T04:54:19;11.07;;;5.50;;
47555;SDS011;33291;46.222;26.460;2023-07-20T04:56:45;10.98;;;5.75;;
47555;SDS011;33291;46.222;26.460;2023-07-20T04:59:10;6.97;;;5.72;;
47555;SDS011;33291;46.222;26.460;2023-07-20T05:01:36;7.78;;;5.40;;
47555;SDS011;33291;46.222;26.460;2023-07-20T05:04:01;5.80;;;4.63;;
47555;SDS011;33291;46.222;26.460;2023-07-20T05:06:27;8.30;;;6.03;;
47555;SDS011;33291;46.222;26.460;2023-07-20T05:08:52;8.32;;;5.43;;
47555;SDS011;33291;46.222;26.460;2023-07-20T05:11:18;11.68;;;5.47;;
47555;SDS011;33291;46.222;26.460;2023-07-20T05:13:43;10.20;;;5.65;;
47555;SDS011;33291;46.222;26.460;2023-07-20T05:16:09;9.82;;;6.03;;
47555;SDS011;33291;46.222;26.460;2023-07-20T05:18:34;9.40;;;5.72;;
47555;SDS011;33291;46.222;26.460;2023-07-20T05:21:00;11.73;;;5.63;;
47555;SDS011;33291;46.222;26.460;2023-07-20T05:23:25;9.77;;;5.32;;
47555;SDS011;33291;46.222;26.460;2023-07-20T05:25:57;10.13;;;5.28;;
47555;SDS011;33291;46.222;26.460;2023-07-20T05:28:24;7.00;;;5.63;;
47555;SDS011;33291;46.222;26.460;2023-07-20T05:30:51;6.95;;;4.57;;
47555;SDS011;33291;46.222;26.460;2023-07-20T05:33:20;14.98;;;5.80;;
47555;SDS011;33291;46.222;26.460;2023-07-20T05:35:46;10.15;;;5.95;;
47555;SDS011;33291;46.222;26.460;2023-07-20T05:38:12;11.02;;;6.25;;
47555;SDS011;33291;46.222;26.460;2023-07-20T05:40:38;10.45;;;5.93;;
47555;SDS011;33291;46.222;26.460;2023-07-20T05:43:05;10.50;;;5.38;;
47555;SDS011;33291;46.222;26.460;2023-07-20T05:45:32;19.38;;;6.80;;
47555;SDS011;33291;46.222;26.460;2023-07-20T05:47:57;6.50;;;5.55;;
47555;SDS011;33291;46.222;26.460;2023-07-20T05:50:22;8.82;;;5.82;;
47555;SDS011;33291;46.222;26.460;2023-07-20T05:52:48;6.90;;;5.50;;
47555;SDS011;33291;46.222;26.460;2023-07-20T05:55:13;7.80;;;5.88;;
47555;SDS011;33291;46.222;26.460;2023-07-20T05:57:39;7.78;;;5.97;;
47555;SDS011;33291;46.222;26.460;2023-07-20T06:00:07;9.35;;;5.65;;
47555;SDS011;33291;46.222;26.460;2023-07-20T06:02:34;8.93;;;5.93;;
47555;SDS011;33291;46.222;26.460;2023-07-20T06:04:59;8.80;;;5.97;;
47555;SDS011;33291;46.222;26.460;2023-07-20T06:07:25;12.18;;;4.80;;
47555;SDS011;33291;46.222;26.460;2023-07-20T06:09:50;9.60;;;5.20;;
47555;SDS011;33291;46.222;26.460;2023-07-20T06:12:15;7.22;;;5.18;;
47555;SDS011;33291;46.222;26.460;2023-07-20T06:14:41;10.98;;;5.57;;
47555;SDS011;33291;46.222;26.460;2023-07-20T06:17:06;8.65;;;4.95;;
47555;SDS011;33291;46.222;26.460;2023-07-20T06:19:32;10.52;;;4.97;;
47555;SDS011;33291;46.222;26.460;2023-07-20T06:21:57;11.10;;;5.38;;
47555;SDS011;33291;46.222;26.460;2023-07-20T06:24:23;10.20;;;5.53;;
47555;SDS011;33291;46.222;26.460;2023-07-20T06:26:48;10.10;;;5.78;;
47555;SDS011;33291;46.222;26.460;2023-07-20T06:29:14;10.48;;;5.72;;
47555;SDS011;33291;46.222;26.460;2023-07-20T06:31:39;10.38;;;5.20;;
47555;SDS011;33291;46.222;26.460;2023-07-20T06:34:05;8.98;;;5.40;;
47555;SDS011;33291;46.222;26.460;2023-07-20T06:36:30;12.63;;;5.65;;
47555;SDS011;33291;46.222;26.460;2023-07-20T06:38:56;6.78;;;4.88;;
47555;SDS011;33291;46.222;26.460;2023-07-20T06:41:22;8.77;;;5.35;;
47555;SDS011;33291;46.222;26.460;2023-07-20T06:43:47;10.13;;;5.25;;
47555;SDS011;33291;46.222;26.460;2023-07-20T06:46:13;7.53;;;5.63;;
47555;SDS011;33291;46.222;26.460;2023-07-20T06:48:38;14.27;;;5.43;;
47555;SDS011;33291;46.222;26.460;2023-07-20T06:51:04;10.45;;;5.15;;
47555;SDS011;33291;46.222;26.460;2023-07-20T06:53:30;11.73;;;4.70;;
47555;SDS011;33291;46.222;26.460;2023-07-20T06:55:55;7.65;;;5.25;;
47555;SDS011;33291;46.222;26.460;2023-07-20T06:58:24;11.95;;;6.07;;
47555;SDS011;33291;46.222;26.460;2023-07-20T07:00:50;10.10;;;5.50;;
47555;SDS011;33291;46.222;26.460;2023-07-20T07:03:16;9.15;;;5.28;;
47555;SDS011;33291;46.222;26.460;2023-07-20T07:05:42;11.57;;;5.70;;
47555;SDS011;33291;46.222;26.460;2023-07-20T07:08:10;9.75;;;5.80;;
47555;SDS011;33291;46.222;26.460;2023-07-20T07:10:36;9.43;;;5.32;;
47555;SDS011;33291;46.222;26.460;2023-07-20T07:13:01;10.75;;;4.80;;
47555;SDS011;33291;46.222;26.460;2023-07-20T07:15:27;9.07;;;5.10;;
47555;SDS011;33291;46.222;26.460;2023-07-20T07:17:53;11.38;;;4.82;;
47555;SDS011;33291;46.222;26.460;2023-07-20T07:20:19;7.82;;;5.20;;
47555;SDS011;33291;46.222;26.460;2023-07-20T07:22:44;10.60;;;4.53;;
47555;SDS011;33291;46.222;26.460;2023-07-20T07:25:10;13.43;;;5.07;;
47555;SDS011;33291;46.222;26.460;2023-07-20T07:27:36;8.82;;;5.78;;
47555;SDS011;33291;46.222;26.460;2023-07-20T07:30:02;11.40;;;5.25;;
47555;SDS011;33291;46.222;26.460;2023-07-20T07:32:28;7.25;;;4.93;;
47555;SDS011;33291;46.222;26.460;2023-07-20T07:34:53;7.82;;;4.93;;
47555;SDS011;33291;46.222;26.460;2023-07-20T07:37:19;7.15;;;5.18;;
47555;SDS011;33291;46.222;26.460;2023-07-20T07:39:45;8.90;;;5.20;;
47555;SDS011;33291;46.222;26.460;2023-07-20T07:42:11;9.57;;;5.07;;
47555;SDS011;33291;46.222;26.460;2023-07-20T07:44:37;10.20;;;5.38;;
47555;SDS011;33291;46.222;26.460;2023-07-20T07:47:03;9.05;;;5.30;;
47555;SDS011;33291;46.222;26.460;2023-07-20T07:49:28;9.35;;;5.22;;
47555;SDS011;33291;46.222;26.460;2023-07-20T07:51:54;12.18;;;5.47;;
47555;SDS011;33291;46.222;26.460;2023-07-20T07:54:19;10.02;;;6.05;;
47555;SDS011;33291;46.222;26.460;2023-07-20T07:56:45;9.00;;;5.50;;
47555;SDS011;33291;46.222;26.460;2023-07-20T07:59:10;6.22;;;4.32;;
47555;SDS011;33291;46.222;26.460;2023-07-20T08:01:36;14.30;;;5.28;;
47555;SDS011;33291;46.222;26.460;2023-07-20T08:04:01;10.55;;;4.40;;
47555;SDS011;33291;46.222;26.460;2023-07-20T08:06:28;7.30;;;3.90;;
47555;SDS011;33291;46.222;26.460;2023-07-20T08:08:54;7.13;;;4.47;;
47555;SDS011;33291;46.222;26.460;2023-07-20T08:11:19;8.70;;;4.63;;
47555;SDS011;33291;46.222;26.460;2023-07-20T08:13:45;7.38;;;3.83;;
47555;SDS011;33291;46.222;26.460;2023-07-20T08:16:13;8.10;;;3.83;;
47555;SDS011;33291;46.222;26.460;2023-07-20T08:18:39;9.10;;;3.95;;
47555;SDS011;33291;46.222;26.460;2023-07-20T08:21:04;7.75;;;4.30;;
47555;SDS011;33291;46.222;26.460;2023-07-20T08:23:30;9.13;;;4.75;;
47555;SDS011;33291;46.222;26.460;2023-07-20T08:25:55;8.57;;;5.32;;
47555;SDS011;33291;46.222;26.460;2023-07-20T08:28:20;8.13;;;3.97;;
47555;SDS011;33291;46.222;26.460;2023-07-20T08:30:47;8.65;;;4.57;;
47555;SDS011;33291;46.222;26.460;2023-07-20T08:33:14;6.35;;;3.67;;
47555;SDS011;33291;46.222;26.460;2023-07-20T08:35:41;7.45;;;4.13;;
47555;SDS011;33291;46.222;26.460;2023-07-20T08:38:07;9.43;;;4.05;;
47555;SDS011;33291;46.222;26.460;2023-07-20T08:40:39;13.32;;;5.55;;
47555;SDS011;33291;46.222;26.460;2023-07-20T08:43:06;10.00;;;4.07;;
47555;SDS011;33291;46.222;26.460;2023-07-20T08:45:34;8.27;;;4.18;;
47555;SDS011;33291;46.222;26.460;2023-07-20T08:48:03;11.25;;;4.35;;
47555;SDS011;33291;46.222;26.460;2023-07-20T08:50:31;5.43;;;4.18;;
47555;SDS011;33291;46.222;26.460;2023-07-20T08:52:57;7.22;;;3.80;;
47555;SDS011;33291;46.222;26.460;2023-07-20T08:55:24;9.57;;;4.10;;
47555;SDS011;33291;46.222;26.460;2023-07-20T08:57:52;9.65;;;4.22;;
47555;SDS011;33291;46.222;26.460;2023-07-20T09:00:23;8.73;;;4.53;;
47555;SDS011;33291;46.222;26.460;2023-07-20T09:02:50;8.38;;;4.55;;
47555;SDS011;33291;46.222;26.460;2023-07-20T09:05:18;5.85;;;3.63;;
47555;SDS011;33291;46.222;26.460;2023-07-20T09:07:47;9.23;;;4.13;;
47555;SDS011;33291;46.222;26.460;2023-07-20T09:10:13;9.30;;;4.85;;
47555;SDS011;33291;46.222;26.460;2023-07-20T09:12:41;6.22;;;3.85;;
47555;SDS011;33291;46.222;26.460;2023-07-20T09:15:07;7.15;;;4.10;;
47555;SDS011;33291;46.222;26.460;2023-07-20T09:17:34;8.95;;;4.28;;
47555;SDS011;33291;46.222;26.460;2023-07-20T09:20:03;5.93;;;3.97;;
47555;SDS011;33291;46.222;26.460;2023-07-20T09:22:36;8.52;;;3.90;;
47555;SDS011;33291;46.222;26.460;2023-07-20T09:25:12;11.93;;;4.40;;
47555;SDS011;33291;46.222;26.460;2023-07-20T09:27:40;13.52;;;4.55;;
47555;SDS011;33291;46.222;26.460;2023-07-20T09:30:07;9.70;;;4.28;;
47555;SDS011;33291;46.222;26.460;2023-07-20T09:32:40;8.90;;;4.35;;
47555;SDS011;33291;46.222;26.460;2023-07-20T09:35:06;8.95;;;4.22;;
47555;SDS011;33291;46.222;26.460;2023-07-20T09:37:37;6.30;;;4.30;;
47555;SDS011;33291;46.222;26.460;2023-07-20T09:40:02;11.35;;;3.95;;
47555;SDS011;33291;46.222;26.460;2023-07-20T09:42:34;9.90;;;4.78;;
47555;SDS011;33291;46.222;26.460;2023-07-20T09:45:01;10.18;;;4.22;;
47555;SDS011;33291;46.222;26.460;2023-07-20T09:47:27;7.40;;;4.20;;
47555;SDS011;33291;46.222;26.460;2023-07-20T09:50:00;14.70;;;4.50;;
47555;SDS011;33291;46.222;26.460;2023-07-20T09:52:26;8.53;;;5.17;;
47555;SDS011;33291;46.222;26.460;2023-07-20T09:54:52;7.68;;;4.53;;
47555;SDS011;33291;46.222;26.460;2023-07-20T09:57:19;9.20;;;4.35;;
47555;SDS011;33291;46.222;26.460;2023-07-20T09:59:46;12.95;;;4.55;;
47555;SDS011;33291;46.222;26.460;2023-07-20T10:02:31;9.77;;;4.35;;
47555;SDS011;33291;46.222;26.460;2023-07-20T10:04:58;6.65;;;4.63;;
47555;SDS011;33291;46.222;26.460;2023-07-20T10:07:33;8.65;;;4.53;;
47555;SDS011;33291;46.222;26.460;2023-07-20T10:10:02;15.95;;;4.72;;
47555;SDS011;33291;46.222;26.460;2023-07-20T10:12:28;8.35;;;4.68;;
47555;SDS011;33291;46.222;26.460;2023-07-20T10:14:59;9.90;;;4.28;;
47555;SDS011;33291;46.222;26.460;2023-07-20T10:17:32;15.35;;;5.22;;
47555;SDS011;33291;46.222;26.460;2023-07-20T10:19:57;8.30;;;4.28;;
47555;SDS011;33291;46.222;26.460;2023-07-20T10:22:29;6.18;;;4.70;;
47555;SDS011;33291;46.222;26.460;2023-07-20T10:24:59;8.35;;;4.30;;
47555;SDS011;33291;46.222;26.460;2023-07-20T10:27:26;9.73;;;4.22;;
47555;SDS011;33291;46.222;26.460;2023-07-20T10:29:52;7.95;;;3.97;;
47555;SDS011;33291;46.222;26.460;2023-07-20T10:32:20;9.32;;;4.78;;
47555;SDS011;33291;46.222;26.460;2023-07-20T10:34:52;8.60;;;4.43;;
47555;SDS011;33291;46.222;26.460;2023-07-20T10:40:28;9.93;;;5.00;;
47555;SDS011;33291;46.222;26.460;2023-07-20T10:42:56;6.45;;;4.20;;
47555;SDS011;33291;46.222;26.460;2023-07-20T10:48:04;8.20;;;4.47;;
47555;SDS011;33291;46.222;26.460;2023-07-20T10:50:31;10.25;;;4.75;;
47555;SDS011;33291;46.222;26.460;2023-07-20T10:53:09;7.80;;;4.03;;
47555;SDS011;33291;46.222;26.460;2023-07-20T10:55:37;7.28;;;4.00;;
47555;SDS011;33291;46.222;26.460;2023-07-20T10:58:20;10.35;;;4.18;;
47555;SDS011;33291;46.222;26.460;2023-07-20T11:00:58;10.43;;;4.25;;
47555;SDS011;33291;46.222;26.460;2023-07-20T11:03:26;9.93;;;5.00;;
47555;SDS011;33291;46.222;26.460;2023-07-20T11:05:56;9.13;;;4.38;;
47555;SDS011;33291;46.222;26.460;2023-07-20T11:08:39;11.23;;;4.57;;
47555;SDS011;33291;46.222;26.460;2023-07-20T11:13:54;6.18;;;4.07;;
47555;SDS011;33291;46.222;26.460;2023-07-20T11:16:34;5.38;;;4.00;;
47555;SDS011;33291;46.222;26.460;2023-07-20T11:19:04;6.80;;;3.80;;
47555;SDS011;33291;46.222;26.460;2023-07-20T11:21:40;6.47;;;3.75;;
47555;SDS011;33291;46.222;26.460;2023-07-20T11:24:07;11.15;;;4.28;;
47555;SDS011;33291;46.222;26.460;2023-07-20T11:26:41;8.20;;;4.47;;
47555;SDS011;33291;46.222;26.460;2023-07-20T11:29:10;7.95;;;3.88;;
47555;SDS011;33291;46.222;26.460;2023-07-20T11:31:37;5.82;;;4.30;;
47555;SDS011;33291;46.222;26.460;2023-07-20T11:34:03;7.47;;;3.85;;
47555;SDS011;33291;46.222;26.460;2023-07-20T11:36:29;10.02;;;4.15;;
47555;SDS011;33291;46.222;26.460;2023-07-20T11:38:54;9.50;;;4.38;;
47555;SDS011;33291;46.222;26.460;2023-07-20T11:41:20;10.15;;;4.35;;
47555;SDS011;33291;46.222;26.460;2023-07-20T11:43:46;5.03;;;3.83;;
47555;SDS011;33291;46.222;26.460;2023-07-20T11:46:12;7.57;;;3.90;;
47555;SDS011;33291;46.222;26.460;2023-07-20T11:48:38;5.95;;;3.78;;
47555;SDS011;33291;46.222;26.460;2023-07-20T11:51:05;8.15;;;4.05;;
47555;SDS011;33291;46.222;26.460;2023-07-20T11:53:31;6.60;;;3.78;;
47555;SDS011;33291;46.222;26.460;2023-07-20T11:55:58;12.98;;;5.25;;
47555;SDS011;33291;46.222;26.460;2023-07-20T11:58:24;7.57;;;3.90;;
47555;SDS011;33291;46.222;26.460;2023-07-20T12:00:53;9.68;;;3.92;;
47555;SDS011;33291;46.222;26.460;2023-07-20T12:03:20;8.20;;;4.00;;
47555;SDS011;33291;46.222;26.460;2023-07-20T12:05:46;9.75;;;4.43;;
47555;SDS011;33291;46.222;26.460;2023-07-20T12:08:12;6.72;;;3.90;;
47555;SDS011;33291;46.222;26.460;2023-07-20T12:10:39;6.85;;;4.38;;
47555;SDS011;33291;46.222;26.460;2023-07-20T12:13:09;7.80;;;4.15;;
47555;SDS011;33291;46.222;26.460;2023-07-20T12:15:39;5.28;;;3.70;;
47555;SDS011;33291;46.222;26.460;2023-07-20T12:18:04;8.32;;;4.20;;
47555;SDS011;33291;46.222;26.460;2023-07-20T12:20:31;9.70;;;4.07;;
47555;SDS011;33291;46.222;26.460;2023-07-20T12:23:06;4.88;;;3.58;;
47555;SDS011;33291;46.222;26.460;2023-07-20T12:28:11;8.13;;;3.92;;
47555;SDS011;33291;46.222;26.460;2023-07-20T12:30:37;8.52;;;3.80;;
47555;SDS011;33291;46.222;26.460;2023-07-20T12:33:04;6.93;;;4.25;;
47555;SDS011;33291;46.222;26.460;2023-07-20T12:35:30;9.98;;;4.30;;
47555;SDS011;33291;46.222;26.460;2023-07-20T12:37:56;5.88;;;4.20;;
47555;SDS011;33291;46.222;26.460;2023-07-20T12:40:22;5.28;;;3.90;;
47555;SDS011;33291;46.222;26.460;2023-07-20T12:42:48;4.78;;;3.58;;
47555;SDS011;33291;46.222;26.460;2023-07-20T12:45:13;6.30;;;4.13;;
47555;SDS011;33291;46.222;26.460;2023-07-20T12:47:39;6.10;;;3.75;;
47555;SDS011;33291;46.222;26.460;2023-07-20T12:50:06;10.32;;;4.13;;
47555;SDS011;33291;46.222;26.460;2023-07-20T12:52:34;6.53;;;4.13;;
47555;SDS011;33291;46.222;26.460;2023-07-20T12:55:02;5.97;;;3.70;;
47555;SDS011;33291;46.222;26.460;2023-07-20T12:57:28;5.50;;;3.55;;
47555;SDS011;33291;46.222;26.460;2023-07-20T12:59:53;9.15;;;3.97;;
47555;SDS011;33291;46.222;26.460;2023-07-20T13:02:19;7.97;;;4.40;;
47555;SDS011;33291;46.222;26.460;2023-07-20T13:04:44;7.45;;;3.60;;
47555;SDS011;33291;46.222;26.460;2023-07-20T13:07:10;7.15;;;4.18;;
47555;SDS011;33291;46.222;26.460;2023-07-20T13:09:39;6.32;;;4.05;;
47555;SDS011;33291;46.222;26.460;2023-07-20T13:12:04;6.78;;;4.22;;
47555;SDS011;33291;46.222;26.460;2023-07-20T13:14:30;6.85;;;4.60;;
47555;SDS011;33291;46.222;26.460;2023-07-20T13:16:56;10.02;;;4.45;;
47555;SDS011;33291;46.222;26.460;2023-07-20T13:19:21;5.07;;;3.63;;
47555;SDS011;33291;46.222;26.460;2023-07-20T13:21:47;9.48;;;4.10;;
47555;SDS011;33291;46.222;26.460;2023-07-20T13:24:12;9.15;;;3.83;;
47555;SDS011;33291;46.222;26.460;2023-07-20T13:26:38;6.78;;;4.32;;
47555;SDS011;33291;46.222;26.460;2023-07-20T13:29:03;7.97;;;3.60;;
47555;SDS011;33291;46.222;26.460;2023-07-20T13:31:29;7.80;;;4.18;;
47555;SDS011;33291;46.222;26.460;2023-07-20T13:33:54;6.43;;;3.88;;
47555;SDS011;33291;46.222;26.460;2023-07-20T13:36:21;5.30;;;3.70;;
47555;SDS011;33291;46.222;26.460;2023-07-20T13:38:47;4.53;;;3.33;;
47555;SDS011;33291;46.222;26.460;2023-07-20T13:41:14;10.32;;;4.10;;
47555;SDS011;33291;46.222;26.460;2023-07-20T13:43:41;6.30;;;4.30;;
47555;SDS011;33291;46.222;26.460;2023-07-20T13:46:07;5.47;;;3.70;;
47555;SDS011;33291;46.222;26.460;2023-07-20T13:48:32;9.45;;;4.82;;
47555;SDS011;33291;46.222;26.460;2023-07-20T13:50:57;6.15;;;4.05;;
47555;SDS011;33291;46.222;26.460;2023-07-20T13:53:23;6.18;;;3.78;;
47555;SDS011;33291;46.222;26.460;2023-07-20T13:55:48;8.73;;;3.97;;
47555;SDS011;33291;46.222;26.460;2023-07-20T13:58:14;8.20;;;3.97;;
47555;SDS011;33291;46.222;26.460;2023-07-20T14:00:40;6.82;;;3.90;;
47555;SDS011;33291;46.222;26.460;2023-07-20T14:03:05;6.70;;;3.50;;
47555;SDS011;33291;46.222;26.460;2023-07-20T14:05:31;9.63;;;3.90;;
47555;SDS011;33291;46.222;26.460;2023-07-20T14:07:56;5.75;;;4.38;;
47555;SDS011;33291;46.222;26.460;2023-07-20T14:10:22;7.40;;;4.18;;
47555;SDS011;33291;46.222;26.460;2023-07-20T14:12:48;6.85;;;3.88;;
47555;SDS011;33291;46.222;26.460;2023-07-20T14:15:13;7.70;;;4.00;;
47555;SDS011;33291;46.222;26.460;2023-07-20T14:17:39;6.43;;;4.60;;
47555;SDS011;33291;46.222;26.460;2023-07-20T14:20:04;10.77;;;4.03;;
47555;SDS011;33291;46.222;26.460;2023-07-20T14:22:30;6.80;;;3.70;;
47555;SDS011;33291;46.222;26.460;2023-07-20T14:24:56;7.05;;;3.67;;
47555;SDS011;33291;46.222;26.460;2023-07-20T14:27:22;7.57;;;4.55;;
47555;SDS011;33291;46.222;26.460;2023-07-20T14:29:47;9.40;;;5.07;;
47555;SDS011;33291;46.222;26.460;2023-07-20T14:32:13;6.85;;;4.03;;
47555;SDS011;33291;46.222;26.460;2023-07-20T14:34:39;7.50;;;3.92;;
47555;SDS011;33291;46.222;26.460;2023-07-20T14:37:06;6.38;;;3.80;;
47555;SDS011;33291;46.222;26.460;2023-07-20T14:39:31;7.50;;;4.38;;
47555;SDS011;33291;46.222;26.460;2023-07-20T14:41:57;6.97;;;4.05;;
47555;SDS011;33291;46.222;26.460;2023-07-20T14:44:23;7.72;;;4.72;;